Sign in

Advertise on goboko.com

You can reach many thousands of active pilots each month by advertising on goboko.com.

Please contact us for details.

Advertising

Info

Aviation weather - KIAD

METAR KIAD 181352Z 00000KT 10SM FEW055 SCT085 18/13 A3003 RMK AO2 SLP166 T01780133

TAF KIAD 171123Z 1712/1818 VRB03KT P6SM FEW050 FM171900 19004KT P6SM FEW050 FM172300 VRB03KT P6SM FEW050 FM181600 34006KT P6SM SCT050

ADDS Experimental. Do not use for flight-related decisions.

Javascript required. Ce site nécessite javascript